Time;durP1;ratioP1;P1;durP2;ratioP2;P2;SDS_P1;SDS_P2;PMS_P1;PMS_P2;Temp;Humidity;BMP_temperature;BMP_pressure;BME280_temperature;BME280_humidity;BME280_pressure;Samples;Min_cycle;Max_cycle;Signal;HPM_P1;HPM_P2
2023/12/30 00:02:46;;;;;;;1999.90;999.90;;;;;;;6.80;100.00;100816.91;10461128;28;20076;-70
2023/12/30 00:07:49;;;;;;;1999.90;999.90;;;;;;;6.97;100.00;100817.97;10459849;28;20053;-71
2023/12/30 00:12:51;;;;;;;1999.90;999.90;;;;;;;7.09;100.00;100814.00;10459426;28;20049;-71
2023/12/30 00:17:53;;;;;;;1999.90;999.90;;;;;;;7.08;100.00;100820.97;10461075;28;20061;-70
2023/12/30 00:22:56;;;;;;;1999.90;999.90;;;;;;;6.96;100.00;100847.50;10443069;28;20095;-70
2023/12/30 00:27:58;;;;;;;1999.90;999.90;;;;;;;6.92;100.00;100840.75;10459819;28;20056;-70
2023/12/30 00:33:01;;;;;;;1999.90;999.90;;;;;;;6.77;100.00;100850.84;10458685;28;20045;-70
2023/12/30 00:38:03;;;;;;;1999.90;999.90;;;;;;;6.91;100.00;100855.53;10459325;28;20416;-70
2023/12/30 00:43:06;;;;;;;1999.90;999.90;;;;;;;7.08;100.00;100847.00;10460198;28;20124;-70
2023/12/30 00:48:09;;;;;;;1999.90;999.90;;;;;;;7.07;100.00;100859.16;10459124;28;20087;-70
2023/12/30 00:53:11;;;;;;;1999.90;999.90;;;;;;;7.11;100.00;100872.94;10459140;28;20049;-70
2023/12/30 00:58:13;;;;;;;1999.90;999.90;;;;;;;7.10;100.00;100866.00;10458773;28;20053;-70
2023/12/30 01:03:16;;;;;;;1999.90;999.90;;;;;;;7.22;100.00;100875.91;10457863;28;20079;-70
2023/12/30 01:08:18;;;;;;;1999.90;999.90;;;;;;;7.18;100.00;100876.13;10458408;28;20052;-70
2023/12/30 01:13:21;;;;;;;1999.90;999.90;;;;;;;7.13;100.00;100885.84;10458162;28;20045;-70
2023/12/30 01:18:24;;;;;;;1999.90;999.90;;;;;;;7.19;100.00;100899.47;10457915;28;20500;-70
2023/12/30 01:23:27;;;;;;;1999.90;999.90;;;;;;;7.30;100.00;100898.19;10458325;28;20045;-70
2023/12/30 01:28:31;;;;;;;1999.90;999.90;;;;;;;7.11;100.00;100891.16;10456581;28;20133;-70
2023/12/30 01:33:34;;;;;;;1999.90;999.90;;;;;;;7.27;100.00;100896.56;10457509;28;20049;-70
2023/12/30 01:38:36;;;;;;;1999.90;999.90;;;;;;;7.16;100.00;100910.03;10456034;28;20419;-70
2023/12/30 01:43:38;;;;;;;1999.90;999.90;;;;;;;7.19;100.00;100907.28;10457357;28;20045;-70
2023/12/30 01:48:41;;;;;;;1999.90;999.90;;;;;;;7.18;100.00;100913.41;10439494;28;20507;-70
2023/12/30 01:53:44;;;;;;;1999.90;999.90;;;;;;;7.03;100.00;100916.66;10455935;28;20136;-70
2023/12/30 01:58:46;;;;;;;1999.90;999.90;;;;;;;7.22;100.00;100922.78;10456735;28;20442;-70
2023/12/30 02:03:49;;;;;;;1999.90;999.90;;;;;;;7.13;100.00;100937.94;10455839;28;20045;-69
2023/12/30 02:08:51;;;;;;;1999.90;999.90;;;;;;;7.07;100.00;100949.44;10455308;28;20557;-70
2023/12/30 02:13:54;;;;;;;1999.90;999.90;;;;;;;6.93;100.00;100939.59;10456153;28;20056;-69
2023/12/30 02:18:56;;;;;;;1999.90;999.90;;;;;;;6.94;100.00;100946.47;10456287;28;20115;-69
2023/12/30 02:23:59;;;;;;;1999.90;999.90;;;;;;;7.19;100.00;100942.91;10456112;28;20443;-69
2023/12/30 02:29:01;;;;;;;1999.90;999.90;;;;;;;7.03;100.00;100948.72;10456486;28;20128;-69
2023/12/30 02:34:03;;;;;;;1999.90;999.90;;;;;;;7.10;100.00;100946.72;10456073;28;20132;-69
2023/12/30 02:39:06;;;;;;;1999.90;999.90;;;;;;;7.17;100.00;100947.31;10455822;28;20381;-69
2023/12/30 02:44:08;;;;;;;1999.90;999.90;;;;;;;7.23;100.00;100955.72;10455970;28;20051;-69
2023/12/30 02:49:11;;;;;;;1999.90;999.90;;;;;;;7.07;100.00;100962.47;10456099;28;20395;-69
2023/12/30 02:54:13;;;;;;;1999.90;999.90;;;;;;;6.76;100.00;100955.00;10416071;22;20042;-69
2023/12/30 02:59:16;;;;;;;1999.90;999.90;;;;;;;6.95;100.00;100961.19;10373670;28;20149;-69
2023/12/30 03:04:18;;;;;;;1999.90;999.90;;;;;;;7.03;100.00;100968.72;10373426;28;20128;-69
2023/12/30 03:09:21;;;;;;;1999.90;999.90;;;;;;;6.99;100.00;100970.59;10372150;28;20480;-69
2023/12/30 03:14:23;;;;;;;1999.90;999.90;;;;;;;6.95;100.00;100968.16;10388423;28;20080;-69
2023/12/30 03:19:26;;;;;;;1999.90;999.90;;;;;;;6.88;100.00;100965.78;10373346;28;20057;-69
2023/12/30 03:24:28;;;;;;;1999.90;999.90;;;;;;;6.86;100.00;100966.78;10374897;28;20473;-69
2023/12/30 03:29:31;;;;;;;1999.90;999.90;;;;;;;6.87;100.00;100965.84;10395689;28;20056;-69
2023/12/30 03:34:33;;;;;;;1999.90;999.90;;;;;;;6.82;100.00;100965.19;10379902;28;20052;-69
2023/12/30 03:39:35;;;;;;;1999.90;999.90;;;;;;;6.93;100.00;100970.00;10378597;28;20104;-69
2023/12/30 03:44:38;;;;;;;1999.90;999.90;;;;;;;6.83;100.00;100972.94;10380298;28;20125;-69
2023/12/30 03:49:40;;;;;;;1999.90;999.90;;;;;;;6.86;100.00;100980.63;10379423;28;20106;-69
2023/12/30 03:54:42;;;;;;;1999.90;999.90;;;;;;;6.91;100.00;100997.81;10378089;28;20050;-69
2023/12/30 03:59:45;;;;;;;1999.90;999.90;;;;;;;6.82;100.00;100986.84;10378027;28;20062;-69
2023/12/30 04:04:48;;;;;;;1999.90;999.90;;;;;;;7.04;100.00;100991.22;10378120;28;20202;-69
2023/12/30 04:09:50;;;;;;;1999.90;999.90;;;;;;;7.01;100.00;100976.59;10378801;28;20053;-69
2023/12/30 04:14:52;;;;;;;1999.90;999.90;;;;;;;6.99;100.00;100968.00;10378337;28;20101;-69
2023/12/30 04:19:55;;;;;;;1999.90;999.90;;;;;;;6.81;100.00;100984.34;10378471;28;20065;-69
2023/12/30 04:24:57;;;;;;;1999.90;999.90;;;;;;;6.75;100.00;100993.19;10378268;28;20134;-69
2023/12/30 04:30:00;;;;;;;1999.90;999.90;;;;;;;6.86;100.00;100992.81;10378575;28;20050;-69
2023/12/30 04:35:03;;;;;;;1999.90;999.90;;;;;;;6.91;100.00;100990.00;10376906;28;20124;-69
2023/12/30 04:40:06;;;;;;;1999.90;999.90;;;;;;;6.78;100.00;100993.09;10377301;28;20136;-69
2023/12/30 04:45:12;;;;;;;1999.90;999.90;;;;;;;6.91;100.00;101000.41;10377498;28;20112;-69
2023/12/30 04:50:15;;;;;;;1999.90;999.90;;;;;;;6.84;100.00;100992.88;10377143;28;20081;-69
2023/12/30 04:55:17;;;;;;;1999.90;999.90;;;;;;;6.89;100.00;101000.47;10377224;28;20054;-69
2023/12/30 05:00:20;;;;;;;1999.90;999.90;;;;;;;6.84;100.00;101003.28;10376650;28;20423;-69
2023/12/30 05:05:25;;;;;;;1999.90;999.90;;;;;;;6.81;100.00;101010.34;10376522;28;20413;-69
2023/12/30 05:10:27;;;;;;;1999.90;999.90;;;;;;;6.86;100.00;101024.03;10376513;28;20081;-69
2023/12/30 05:15:30;;;;;;;1999.90;999.90;;;;;;;6.78;100.00;101013.91;10376302;28;20103;-68
2023/12/30 05:20:32;;;;;;;1999.90;999.90;;;;;;;6.79;100.00;101017.34;10376160;28;20054;-69
2023/12/30 05:25:35;;;;;;;1999.90;999.90;;;;;;;6.76;100.00;101013.13;10375652;28;20396;-69
2023/12/30 05:30:38;;;;;;;1999.90;999.90;;;;;;;6.70;100.00;101029.81;10374674;28;20056;-69
2023/12/30 05:35:40;;;;;;;1999.90;999.90;;;;;;;6.94;100.00;101034.97;10375285;28;20452;-69
2023/12/30 05:40:42;;;;;;;1999.90;999.90;;;;;;;6.82;100.00;101041.50;10374360;28;20089;-69
2023/12/30 05:45:45;;;;;;;1999.90;999.90;;;;;;;6.80;100.00;101045.94;10375412;28;20144;-69
2023/12/30 05:50:48;;;;;;;1999.90;999.90;;;;;;;6.77;100.00;101058.22;10374785;28;20133;-69
2023/12/30 05:55:52;;;;;;;1999.90;999.90;;;;;;;6.65;100.00;101049.94;10374637;28;20082;-69
2023/12/30 06:00:55;;;;;;;1999.90;999.90;;;;;;;6.53;100.00;101053.00;10374722;28;20061;-69
2023/12/30 06:05:57;;;;;;;1999.90;999.90;;;;;;;6.74;100.00;101067.00;10374910;28;20061;-69
2023/12/30 06:11:00;;;;;;;1999.90;999.90;;;;;;;6.82;100.00;101077.09;10374007;28;20057;-69
2023/12/30 06:16:02;;;;;;;1999.90;999.90;;;;;;;6.84;100.00;101090.91;10374240;28;20046;-69
2023/12/30 06:21:05;;;;;;;1999.90;999.90;;;;;;;6.83;100.00;101084.00;10373777;28;20057;-69
2023/12/30 06:26:07;;;;;;;1999.90;999.90;;;;;;;6.84;100.00;101080.50;10374023;28;20374;-69
2023/12/30 06:31:10;;;;;;;1999.90;999.90;;;;;;;6.70;100.00;101081.00;10357032;28;20056;-69
2023/12/30 06:36:21;;;;;;;1999.90;999.90;;;;;;;6.63;100.00;101082.97;10372699;28;20072;-69
2023/12/30 06:41:24;;;;;;;1999.90;999.90;;;;;;;6.58;100.00;101082.31;10372824;28;20190;-69
2023/12/30 06:46:26;;;;;;;1999.90;999.90;;;;;;;6.71;100.00;101093.13;10373702;28;20293;-69
2023/12/30 06:51:29;;;;;;;1999.90;999.90;;;;;;;6.74;100.00;101097.34;10373747;28;20061;-69
2023/12/30 06:56:31;;;;;;;1999.90;999.90;;;;;;;6.66;100.00;101098.50;10373471;28;20064;-69
2023/12/30 07:01:37;;;;;;;1999.90;999.90;;;;;;;6.73;100.00;101108.69;10377634;28;20053;-69
2023/12/30 07:06:39;;;;;;;1999.90;999.90;;;;;;;6.74;100.00;101095.63;10381477;28;20053;-69
2023/12/30 07:11:42;;;;;;;1999.90;999.90;;;;;;;6.61;100.00;101108.22;10381045;28;20046;-69
2023/12/30 07:16:49;;;;;;;1999.90;999.90;;;;;;;6.62;100.00;101102.13;10396508;28;20081;-69
2023/12/30 07:21:52;;;;;;;1999.90;999.90;;;;;;;6.59;100.00;101119.56;10379562;28;20049;-68
2023/12/30 07:26:54;;;;;;;1999.90;999.90;;;;;;;6.77;100.00;101107.66;10380889;28;20078;-69
2023/12/30 07:31:59;;;;;;;1999.90;999.90;;;;;;;6.76;100.00;101112.03;10380107;28;20551;-69
2023/12/30 07:37:02;;;;;;;1999.90;999.90;;;;;;;6.87;100.00;101120.25;10379923;28;20129;-69
2023/12/30 07:42:05;;;;;;;1999.90;999.90;;;;;;;6.92;100.00;101117.50;10379972;28;20128;-69
2023/12/30 07:47:07;;;;;;;1999.90;999.90;;;;;;;6.93;100.00;101133.97;10379717;28;20045;-69
2023/12/30 07:52:10;;;;;;;1999.90;999.90;;;;;;;6.64;100.00;101152.34;10378031;28;20053;-69
2023/12/30 07:57:13;;;;;;;1999.90;999.90;;;;;;;6.71;100.00;101160.78;10379333;28;20050;-69
2023/12/30 08:02:15;;;;;;;1999.90;999.90;;;;;;;6.78;100.00;101172.66;10377852;28;20125;-69
2023/12/30 08:07:17;;;;;;;1999.90;999.90;;;;;;;6.72;100.00;101170.25;10379048;28;20120;-69
2023/12/30 08:12:20;;;;;;;1999.90;999.90;;;;;;;6.70;100.00;101167.72;10378375;28;20056;-69
2023/12/30 08:17:22;;;;;;;1999.90;999.90;;;;;;;6.75;100.00;101166.72;10393653;28;20121;-69
2023/12/30 08:22:25;;;;;;;1999.90;999.90;;;;;;;6.66;100.00;101173.09;10378322;28;20058;-69
2023/12/30 08:27:28;;;;;;;1999.90;999.90;;;;;;;6.81;100.00;101177.75;10377998;28;20054;-69
2023/12/30 08:32:30;;;;;;;1999.90;999.90;;;;;;;6.91;100.00;101180.88;10377850;28;20050;-69
2023/12/30 08:37:33;;;;;;;1999.90;999.90;;;;;;;7.18;100.00;101184.25;10377351;28;21108;-69
2023/12/30 08:42:35;;;;;;;1999.90;999.90;;;;;;;7.20;100.00;101178.97;10376763;28;20058;-69
2023/12/30 08:47:38;;;;;;;1999.90;999.90;;;;;;;7.12;100.00;101186.22;10377202;28;20046;-69
2023/12/30 08:52:40;;;;;;;1999.90;999.90;;;;;;;7.27;100.00;101184.81;10392113;28;20064;-69
2023/12/30 08:57:43;;;;;;;1999.90;999.90;;;;;;;7.42;100.00;101186.81;10376893;28;20449;-69
2023/12/30 09:02:47;;;;;;;1999.90;999.90;;;;;;;7.38;100.00;101177.41;10376668;28;20066;-69
2023/12/30 09:07:50;;;;;;;1999.90;999.90;;;;;;;7.34;100.00;101184.50;10376582;28;20046;-69
2023/12/30 09:12:52;;;;;;;1999.90;999.90;;;;;;;7.32;100.00;101191.53;10376231;28;20124;-69
2023/12/30 09:17:58;;;;;;;1999.90;999.90;;;;;;;7.41;100.00;101198.16;10376348;28;20077;-69
2023/12/30 09:23:01;;;;;;;1999.90;999.90;;;;;;;7.58;100.00;101198.38;10375350;28;20068;-69
2023/12/30 09:28:04;;;;;;;1999.90;999.90;;;;;;;7.63;100.00;101205.97;10375664;28;20092;-69
2023/12/30 09:33:07;;;;;;;1999.90;999.90;;;;;;;7.62;100.00;101215.56;10374676;28;20133;-69
2023/12/30 09:38:13;;;;;;;1999.90;999.90;;;;;;;7.97;100.00;101215.13;10375415;28;20046;-69
2023/12/30 09:43:25;;;;;;;1999.90;999.90;;;;;;;7.88;100.00;101218.91;10375475;28;20085;-69
2023/12/30 09:48:27;;;;;;;1999.90;999.90;;;;;;;7.98;100.00;101227.22;10373971;28;20100;-69
2023/12/30 09:53:31;;;;;;;1999.90;999.90;;;;;;;7.94;100.00;101223.91;10375124;28;20061;-69
2023/12/30 09:58:33;;;;;;;1999.90;999.90;;;;;;;8.04;100.00;101221.78;10373551;28;20133;-69
2023/12/30 10:03:36;;;;;;;1999.90;999.90;;;;;;;8.15;100.00;101229.16;10374874;28;20049;-69
2023/12/30 10:08:38;;;;;;;1999.90;999.90;;;;;;;8.25;100.00;101216.59;10374712;28;20050;-69
2023/12/30 10:13:41;;;;;;;1999.90;999.90;;;;;;;8.16;100.00;101226.50;10373277;28;20050;-69
2023/12/30 10:18:43;;;;;;;1999.90;999.90;;;;;;;8.13;100.00;101231.00;10373226;28;20068;-69
2023/12/30 10:23:51;;;;;;;1999.90;999.90;;;;;;;8.14;100.00;101223.09;10373131;28;20049;-69
2023/12/30 10:28:53;;;;;;;1999.90;999.90;;;;;;;8.15;100.00;101208.28;10373233;28;20068;-69
2023/12/30 10:33:56;;;;;;;1999.90;999.90;;;;;;;8.31;100.00;101219.81;10376931;28;20050;-69
2023/12/30 10:39:00;;;;;;;1999.90;999.90;;;;;;;8.11;100.00;101223.22;10381021;28;20401;-69
2023/12/30 10:44:03;;;;;;;1999.90;999.90;;;;;;;8.27;100.00;101225.19;10364850;28;20460;-69
2023/12/30 10:49:07;;;;;;;1999.90;999.90;;;;;;;8.35;100.00;101221.41;10381801;28;20493;-69
2023/12/30 10:54:13;;;;;;;1999.90;999.90;;;;;;;8.59;100.00;101226.53;10380415;28;20062;-69
2023/12/30 10:59:16;;;;;;;1999.90;999.90;;;;;;;8.51;100.00;101221.63;10380408;28;20086;-69
2023/12/30 11:04:19;;;;;;;1999.90;999.90;;;;;;;8.85;100.00;101222.78;10364129;28;20050;-69
2023/12/30 11:09:28;;;;;;;1999.90;999.90;;;;;;;8.80;100.00;101209.09;10380541;28;20088;-69
2023/12/30 11:14:31;;;;;;;1999.90;999.90;;;;;;;8.69;100.00;101198.25;10380828;28;20049;-69
2023/12/30 11:19:35;;;;;;;1999.90;999.90;;;;;;;8.81;100.00;101189.91;10363992;28;20053;-69
2023/12/30 11:24:42;;;;;;;1999.90;999.90;;;;;;;8.81;100.00;101195.13;10379378;28;20041;-69
2023/12/30 11:29:45;;;;;;;1999.90;999.90;;;;;;;8.96;100.00;101177.94;10379422;28;20088;-69
2023/12/30 11:34:48;;;;;;;1999.90;999.90;;;;;;;9.02;100.00;101171.59;10380240;28;20054;-69
2023/12/30 11:39:52;;;;;;;1999.90;999.90;;;;;;;8.83;100.00;101172.41;10379138;28;20093;-69
2023/12/30 11:44:55;;;;;;;1999.90;999.90;;;;;;;8.92;100.00;101174.59;10378038;28;20126;-69
2023/12/30 11:50:04;;;;;;;1999.90;999.90;;;;;;;9.37;100.00;101151.69;10379510;28;20405;-69
2023/12/30 11:55:06;;;;;;;1999.90;999.90;;;;;;;9.24;100.00;101153.16;10378021;28;20180;-69
2023/12/30 12:00:10;;;;;;;1999.90;999.90;;;;;;;9.35;100.00;101145.69;10379110;28;20130;-69
2023/12/30 12:05:12;;;;;;;1999.90;999.90;;;;;;;9.53;100.00;101137.88;10379063;28;20050;-69
2023/12/30 12:10:15;;;;;;;1999.90;999.90;;;;;;;9.63;100.00;101140.00;10379139;28;20050;-69
2023/12/30 12:15:17;;;;;;;1999.90;999.90;;;;;;;9.16;100.00;101137.84;10378513;28;20386;-69
2023/12/30 12:20:20;;;;;;;1999.90;999.90;;;;;;;9.70;100.00;101127.50;10378450;28;20045;-69
2023/12/30 12:25:23;;;;;;;1999.90;999.90;;;;;;;9.30;100.00;101132.81;10378171;28;20045;-68
2023/12/30 12:30:25;;;;;;;1999.90;999.90;;;;;;;9.53;100.00;101130.03;10376819;28;20460;-69
2023/12/30 12:35:30;;;;;;;1999.90;999.90;;;;;;;9.47;100.00;101123.34;10377684;28;20108;-69
2023/12/30 12:40:32;;;;;;;1999.90;999.90;;;;;;;9.55;100.00;101128.19;10377591;28;20129;-69
2023/12/30 12:45:35;;;;;;;1999.90;999.90;;;;;;;9.89;100.00;101106.50;10377359;28;20041;-69
2023/12/30 12:50:37;;;;;;;1999.90;999.90;;;;;;;9.70;100.00;101101.34;10377409;28;20061;-69
2023/12/30 12:55:40;;;;;;;1999.90;999.90;;;;;;;9.83;100.00;101094.59;10375627;28;20057;-69
2023/12/30 13:00:43;;;;;;;1999.90;999.90;;;;;;;9.87;100.00;101092.66;10375611;28;20124;-69
2023/12/30 13:05:46;;;;;;;1999.90;999.90;;;;;;;9.75;100.00;101082.78;10391849;28;20050;-69
2023/12/30 13:10:57;;;;;;;1999.90;999.90;;;;;;;9.81;100.00;101072.88;10376398;28;20046;-69
2023/12/30 13:16:00;;;;;;;1999.90;999.90;;;;;;;9.84;100.00;101071.88;10375293;28;20049;-69
2023/12/30 13:21:09;;;;;;;1999.90;999.90;;;;;;;9.92;100.00;101063.63;10492769;28;20387;-67
2023/12/30 13:26:12;;;;;;;1999.90;999.90;;;;;;;9.88;100.00;101064.72;10421459;22;20057;-68
2023/12/30 13:31:18;;;;;;;1999.90;999.90;;;;;;;10.09;100.00;101049.72;10408601;28;20045;-68
2023/12/30 13:36:21;;;;;;;1999.90;999.90;;;;;;;10.00;100.00;101044.03;10410288;28;20081;-68
2023/12/30 13:41:24;;;;;;;1999.90;999.90;;;;;;;10.29;100.00;101038.19;10409367;28;20061;-68
2023/12/30 13:46:38;;;;;;;1999.90;999.90;;;;;;;10.35;100.00;101030.06;10409045;28;20555;-68
2023/12/30 13:51:44;;;;;;;1999.90;999.90;;;;;;;10.37;100.00;101029.09;10409094;28;20053;-68
2023/12/30 13:56:50;;;;;;;1999.90;999.90;;;;;;;10.33;100.00;101035.38;10408587;28;20132;-68
2023/12/30 14:01:52;;;;;;;1999.90;999.90;;;;;;;10.34;100.00;101029.25;10408468;28;20060;-68
2023/12/30 14:06:58;;;;;;;1999.90;999.90;;;;;;;10.13;98.97;101018.06;10408177;28;20550;-68
2023/12/30 14:12:04;;;;;;;1999.90;999.90;;;;;;;10.40;100.00;101013.19;10408414;28;20077;-68
2023/12/30 14:17:07;;;;;;;1999.90;999.90;;;;;;;10.13;100.00;101001.53;10407828;28;20496;-68
2023/12/30 14:22:10;;;;;;;1999.90;999.90;;;;;;;10.15;100.00;100999.69;10406531;28;20143;-68
2023/12/30 14:27:16;;;;;;;1999.90;999.90;;;;;;;10.16;100.00;100991.75;10407728;28;20049;-68
2023/12/30 14:32:19;;;;;;;1999.90;999.90;;;;;;;9.80;100.00;100989.25;10380257;28;20129;-68
2023/12/30 14:37:21;;;;;;;1999.90;999.90;;;;;;;9.96;100.00;100987.56;10379997;28;20049;-68
2023/12/30 14:42:24;;;;;;;1999.90;999.90;;;;;;;9.61;100.00;100984.13;10379743;28;20057;-68
2023/12/30 14:47:26;;;;;;;1999.90;999.90;;;;;;;9.90;100.00;100987.91;10379573;28;20404;-68
2023/12/30 14:52:29;;;;;;;1999.90;999.90;;;;;;;9.73;100.00;100982.66;10379445;28;20077;-68
2023/12/30 14:57:31;;;;;;;1999.90;999.90;;;;;;;9.64;100.00;100969.13;10378945;28;20045;-68
2023/12/30 15:02:34;;;;;;;1999.90;999.90;;;;;;;9.44;100.00;100982.38;10377934;28;20085;-68
2023/12/30 15:07:37;;;;;;;1999.90;999.90;;;;;;;9.38;100.00;100967.84;10378808;28;20074;-68
2023/12/30 15:12:42;;;;;;;1999.90;999.90;;;;;;;9.36;100.00;100967.06;10377536;28;20057;-68
2023/12/30 15:17:45;;;;;;;1999.90;999.90;;;;;;;9.53;100.00;100966.25;10377206;28;20056;-68
2023/12/30 15:22:47;;;;;;;1999.90;999.90;;;;;;;9.47;100.00;100964.75;10377037;28;20068;-68
2023/12/30 15:27:53;;;;;;;1999.90;999.90;;;;;;;9.27;100.00;100967.53;10376920;28;20096;-68
2023/12/30 15:32:57;;;;;;;1999.90;999.90;;;;;;;9.17;100.00;100959.28;10377759;28;20056;-68
2023/12/30 15:38:00;;;;;;;1999.90;999.90;;;;;;;9.40;100.00;100959.94;10376441;28;20085;-68
2023/12/30 15:43:03;;;;;;;1999.90;999.90;;;;;;;9.05;100.00;100957.28;10376265;28;20045;-68
2023/12/30 15:48:11;;;;;;;1999.90;999.90;;;;;;;8.91;100.00;100953.56;10377080;28;20543;-68
2023/12/30 15:53:15;;;;;;;1999.90;999.90;;;;;;;8.96;100.00;100944.66;10376202;28;20049;-68
2023/12/30 15:58:17;;;;;;;1999.90;999.90;;;;;;;8.95;100.00;100945.59;10376710;28;20045;-68
2023/12/30 16:03:19;;;;;;;1999.90;999.90;;;;;;;9.20;100.00;100940.00;10376515;28;20132;-69
2023/12/30 16:08:22;;;;;;;1999.90;999.90;;;;;;;8.97;100.00;100933.28;10376254;28;20092;-68
2023/12/30 16:13:24;;;;;;;1999.90;999.90;;;;;;;9.10;100.00;100932.63;10376414;28;20050;-69
2023/12/30 16:18:30;;;;;;;1999.90;999.90;;;;;;;8.97;100.00;100931.53;10375176;28;20042;-68
2023/12/30 16:23:32;;;;;;;1999.90;999.90;;;;;;;8.83;100.00;100926.13;10374764;28;20088;-68
2023/12/30 16:28:35;;;;;;;1999.90;999.90;;;;;;;9.06;100.00;100925.00;10376225;28;20077;-68
2023/12/30 16:33:40;;;;;;;1999.90;999.90;;;;;;;8.94;100.00;100926.44;10375679;28;20064;-68
2023/12/30 16:38:43;;;;;;;1999.90;999.90;;;;;;;9.14;100.00;100927.25;10375231;28;20477;-68
2023/12/30 16:43:45;;;;;;;1999.90;999.90;;;;;;;8.89;100.00;100925.81;10375710;28;20128;-69
2023/12/30 16:48:48;;;;;;;1999.90;999.90;;;;;;;9.00;100.00;100922.72;10374132;28;20054;-69
2023/12/30 16:53:50;;;;;;;1999.90;999.90;;;;;;;8.83;100.00;100905.25;10373537;28;20046;-69
2023/12/30 16:58:53;;;;;;;1999.90;999.90;;;;;;;8.94;100.00;100908.16;10373789;28;20053;-69
2023/12/30 17:03:55;;;;;;;1999.90;999.90;;;;;;;8.95;100.00;100904.66;10373405;28;20489;-69
2023/12/30 17:09:00;;;;;;;1999.90;999.90;;;;;;;9.21;100.00;100895.53;10374643;28;20060;-69
2023/12/30 17:14:02;;;;;;;1999.90;999.90;;;;;;;9.09;100.00;100909.19;10374926;28;20057;-69
2023/12/30 17:19:05;;;;;;;1999.90;999.90;;;;;;;9.23;100.00;100905.88;10373060;28;20088;-69
2023/12/30 17:24:07;;;;;;;1999.90;999.90;;;;;;;9.24;100.00;100900.56;10374077;28;20076;-69
2023/12/30 17:29:10;;;;;;;1999.90;999.90;;;;;;;9.17;100.00;100909.66;10374193;28;20049;-69
2023/12/30 17:34:13;;;;;;;1999.90;999.90;;;;;;;9.30;100.00;100904.66;10374115;28;20053;-69
2023/12/30 17:39:15;;;;;;;1999.90;999.90;;;;;;;9.34;100.00;100906.19;10374071;28;20049;-69
2023/12/30 17:44:18;;;;;;;1999.90;999.90;;;;;;;9.38;100.00;100912.97;10373950;28;20073;-69
2023/12/30 17:49:20;;;;;;;1999.90;999.90;;;;;;;9.26;100.00;100906.59;10373947;28;20050;-69
2023/12/30 17:54:23;;;;;;;1999.90;999.90;;;;;;;9.15;100.00;100897.59;10356263;28;20058;-69
2023/12/30 17:59:25;;;;;;;1999.90;999.90;;;;;;;9.39;100.00;100909.41;10373464;28;20057;-69
2023/12/30 18:04:28;;;;;;;1999.90;999.90;;;;;;;9.41;100.00;100901.50;10375806;28;20050;-69
2023/12/30 18:09:30;;;;;;;1999.90;999.90;;;;;;;9.16;100.00;100897.50;10381103;28;20042;-69
2023/12/30 18:14:33;;;;;;;1999.90;999.90;;;;;;;9.16;100.00;100896.66;10380678;28;20076;-69
2023/12/30 18:19:35;;;;;;;1999.90;999.90;;;;;;;9.31;100.00;100885.44;10379419;28;20128;-69
2023/12/30 18:24:38;;;;;;;1999.90;999.90;;;;;;;9.45;100.00;100882.16;10380402;28;20112;-69
2023/12/30 18:29:41;;;;;;;1999.90;999.90;;;;;;;9.25;100.00;100873.53;10380185;28;20041;-69
2023/12/30 18:34:44;;;;;;;1999.90;999.90;;;;;;;9.08;100.00;100863.09;10379170;28;20076;-69
2023/12/30 18:39:46;;;;;;;1999.90;999.90;;;;;;;9.09;100.00;100847.38;10379962;28;20129;-69
2023/12/30 18:44:49;;;;;;;1999.90;999.90;;;;;;;9.28;100.00;100841.19;10379736;28;20050;-69
2023/12/30 18:49:51;;;;;;;1999.90;999.90;;;;;;;9.15;100.00;100842.75;10378569;28;20068;-69
2023/12/30 18:54:54;;;;;;;1999.90;999.90;;;;;;;9.07;100.00;100832.69;10379447;28;20053;-69
2023/12/30 18:59:56;;;;;;;1999.90;999.90;;;;;;;9.17;100.00;100828.66;10379375;28;20053;-69
2023/12/30 19:04:59;;;;;;;1999.90;999.90;;;;;;;9.00;100.00;100826.09;10378885;28;20144;-69
2023/12/30 19:10:04;;;;;;;1999.90;999.90;;;;;;;9.01;100.00;100812.94;10379049;28;20057;-69
2023/12/30 19:15:08;;;;;;;1999.90;999.90;;;;;;;9.13;100.00;100808.88;10377849;28;20054;-69
2023/12/30 19:20:10;;;;;;;1999.90;999.90;;;;;;;9.05;100.00;100800.56;10377104;28;20056;-69
2023/12/30 19:25:13;;;;;;;1999.90;999.90;;;;;;;8.92;100.00;100787.28;10377192;28;20053;-69
2023/12/30 19:30:15;;;;;;;1999.90;999.90;;;;;;;8.88;100.00;100777.94;10377856;28;20485;-69
2023/12/30 19:35:19;;;;;;;1999.90;999.90;;;;;;;8.95;100.00;100775.84;10376763;28;20069;-69
2023/12/30 19:40:22;;;;;;;1999.90;999.90;;;;;;;8.90;100.00;100757.81;10377527;28;20529;-69
2023/12/30 19:45:24;;;;;;;1999.90;999.90;;;;;;;8.98;100.00;100749.56;10376194;28;20056;-69
2023/12/30 19:50:28;;;;;;;1999.90;999.90;;;;;;;9.01;100.00;100745.06;10376137;28;20042;-69
2023/12/30 19:55:30;;;;;;;1999.90;999.90;;;;;;;9.04;100.00;100734.41;10376986;28;20108;-69
2023/12/30 20:00:33;;;;;;;1999.90;999.90;;;;;;;8.91;100.00;100730.78;10376886;28;20096;-69
2023/12/30 20:05:35;;;;;;;1999.90;999.90;;;;;;;8.97;100.00;100748.72;10375574;28;20137;-69
2023/12/30 20:10:38;;;;;;;1999.90;999.90;;;;;;;8.71;100.00;100716.13;10376604;28;20465;-69
2023/12/30 20:15:40;;;;;;;1999.90;999.90;;;;;;;8.67;100.00;100720.63;10376166;28;20046;-69
2023/12/30 20:20:43;;;;;;;1999.90;999.90;;;;;;;8.70;100.00;100707.44;10376047;28;20073;-69
2023/12/30 20:25:45;;;;;;;1999.90;999.90;;;;;;;8.61;100.00;100701.84;10374522;28;20053;-69
2023/12/30 20:30:47;;;;;;;1999.90;999.90;;;;;;;8.64;100.00;100693.84;10375482;28;20509;-69
2023/12/30 20:35:50;;;;;;;1999.90;999.90;;;;;;;8.43;100.00;100698.41;10375739;28;20104;-69
2023/12/30 20:40:52;;;;;;;1999.90;999.90;;;;;;;8.51;100.00;100697.09;10375435;28;20092;-69
2023/12/30 20:45:55;;;;;;;1999.90;999.90;;;;;;;8.53;100.00;100695.25;10375275;28;20125;-69
2023/12/30 20:50:58;;;;;;;1999.90;999.90;;;;;;;8.41;100.00;100671.53;10375085;28;20056;-69
2023/12/30 20:56:01;;;;;;;1999.90;999.90;;;;;;;8.43;100.00;100678.38;10375003;28;20150;-69
2023/12/30 21:01:04;;;;;;;1999.90;999.90;;;;;;;8.43;100.00;100659.28;10374933;28;20052;-69
2023/12/30 21:06:06;;;;;;;1999.90;999.90;;;;;;;8.38;100.00;100654.25;10373594;28;20062;-69
2023/12/30 21:11:09;;;;;;;1999.90;999.90;;;;;;;8.50;100.00;100653.66;10374699;28;20448;-69
2023/12/30 21:16:18;;;;;;;1999.90;999.90;;;;;;;8.62;100.00;100652.19;10374582;28;20151;-69
2023/12/30 21:21:20;;;;;;;1999.90;999.90;;;;;;;8.44;100.00;100632.25;10374160;28;20054;-69
2023/12/30 21:26:23;;;;;;;1999.90;999.90;;;;;;;8.51;100.00;100620.59;10374164;28;20137;-69
2023/12/30 21:31:25;;;;;;;1999.90;999.90;;;;;;;8.57;100.00;100617.66;10374170;28;20125;-69
2023/12/30 21:36:28;;;;;;;1999.90;999.90;;;;;;;8.59;100.00;100620.19;10373987;28;20493;-69
2023/12/30 21:41:30;;;;;;;1999.90;999.90;;;;;;;8.77;100.00;100613.16;10379637;28;20056;-69
2023/12/30 21:46:39;;;;;;;1999.90;999.90;;;;;;;8.78;100.00;100604.41;10382188;28;20410;-69
2023/12/30 21:51:43;;;;;;;1999.90;999.90;;;;;;;8.65;100.00;100591.16;10381973;28;20125;-69
2023/12/30 21:56:45;;;;;;;1999.90;999.90;;;;;;;8.65;100.00;100583.34;10380431;28;20050;-69